Nearby METAR Reports

 

KAWO - Arlington Muni, Washington, USA
Distance from station: WSW 26mi, 42km
Updated: Tue, 22-Jul-2014 10:15pm PDT
Mostly cloudy
Mostly cloudy
 Wind from calm
Wind: Calm
Temperature: 64°F , 18°C
Dew Point: 55°F , 13°C
Humidity: 73%
Barometer: 30.04 inHg , 1017.3 hPa
Clouds: Mostly cloudy
Visibility: 10 miles , 16 km
Cloud details: Mostly cloudy 6500 ft
Mostly cloudy 7000 ft
2014/07/23 05:15 KAWO 230515Z AUTO 00000KT 10SM BKN065 BKN070 18/13 A3004 RMK AO1
KPAE - Everett, Washington, USA
Distance from station: SW 39mi, 62km
Updated: Tue, 22-Jul-2014 9:53pm PDT
Few Clouds
Few Clouds
 Wind from calm
Wind: Calm
Temperature: 63°F , 17°C
Dew Point: 55°F , 13°C
Humidity: 77%
Barometer: 30.04 inHg , 1017.3 hPa
Clouds: Few Clouds
Visibility: 10 miles , 16 km
Cloud details: Few Clouds 6000 ft
2014/07/23 04:53 KPAE 230453Z AUTO 00000KT 10SM FEW060 17/13 A3004 RMK AO2 SLP172 T01720128
 
KBVS - Burlington/Mt V, Washington, USA
Distance from station: WNW 40mi, 64km
Updated: Tue, 22-Jul-2014 10:15pm PDT
Mostly cloudy
Mostly cloudy
 Wind from calm
Wind: Calm
Temperature: 63°F , 17°C
Dew Point: 57°F , 14°C
Humidity: 83%
Barometer: 30.03 inHg , 1016.9 hPa
Clouds: Mostly cloudy
Visibility: 10 miles , 16 km
Cloud details: Mostly cloudy 6000 ft
2014/07/23 05:15 KBVS 230515Z AUTO 00000KT 10SM BKN060 17/14 A3003 RMK A01 P000
KNUW - Whidbey Is. Nas, Washington, USA
Distance from station: W 48mi, 78km
Updated: Tue, 22-Jul-2014 9:56pm PDT
Mostly cloudy
Mostly cloudy
 Wind from W
Wind: W 3 mph , 6 km/h
Temperature: 61°F , 16°C
Dew Point: 54°F , 12°C
Humidity: 77%
Barometer: 30.03 inHg , 1016.9 hPa
Clouds: Mostly cloudy
Visibility: 10 miles , 16 km
Cloud details: Few Clouds 3100 ft
Mostly cloudy 6000 ft
Mostly cloudy 24000 ft
2014/07/23 04:56 KNUW 230456Z 26003KT 10SM FEW031 BKN060 BKN240 16/12 A3003 RMK AO2 SLP174 T01610122 $
 
KBLI - Bellingham, Washington, USA
Distance from station: NW 57mi, 91km
Updated: Tue, 22-Jul-2014 9:53pm PDT
Overcast
Overcast
 Wind from calm
Wind: Calm
Temperature: 63°F , 17°C
Dew Point: 55°F , 13°C
Humidity: 77%
Barometer: 30.02 inHg , 1016.6 hPa
Clouds: Overcast
Visibility: 10 miles , 16 km
Cloud details: Mostly cloudy 7500 ft
Overcast 9000 ft
2014/07/23 04:53 KBLI 230453Z 00000KT 10SM BKN075 OVC090 17/13 A3002 RMK AO2 SLP171 T01720128
KBFI - Seattle/Boeing, Washington, USA
Distance from station: SW 58mi, 94km
Updated: Tue, 22-Jul-2014 9:53pm PDT
Partly cloudy
Partly cloudy
 Wind from calm
Wind: Calm
Temperature: 66°F , 19°C
Dew Point: 55°F , 13°C
Humidity: 68%
Barometer: 30.02 inHg , 1016.6 hPa
Clouds: Partly cloudy
Visibility: 10 miles , 16 km
Cloud details: Partly cloudy 6500 ft
Partly cloudy 25000 ft
2014/07/23 04:53 KBFI 230453Z 00000KT 10SM SCT065 SCT250 19/13 A3002 RMK AO2 SLP166 T01940128